sensor_id;sensor_type;location;lat;lon;timestamp;P1;durP1;ratioP1;P2;durP2;ratioP2
70997;SDS011;58663;52.040;4.634;2022-08-25T00:00:09;25.40;;;19.35;;
70997;SDS011;58663;52.040;4.634;2022-08-25T00:02:35;28.52;;;21.10;;
70997;SDS011;58663;52.040;4.634;2022-08-25T00:05:01;27.35;;;19.73;;
70997;SDS011;58663;52.040;4.634;2022-08-25T00:07:26;28.52;;;21.08;;
70997;SDS011;58663;52.040;4.634;2022-08-25T00:09:52;25.48;;;19.77;;
70997;SDS011;58663;52.040;4.634;2022-08-25T00:12:17;29.77;;;20.83;;
70997;SDS011;58663;52.040;4.634;2022-08-25T00:14:43;28.50;;;21.05;;
70997;SDS011;58663;52.040;4.634;2022-08-25T00:17:08;29.63;;;20.83;;
70997;SDS011;58663;52.040;4.634;2022-08-25T00:19:35;27.90;;;20.20;;
70997;SDS011;58663;52.040;4.634;2022-08-25T00:22:02;28.10;;;20.02;;
70997;SDS011;58663;52.040;4.634;2022-08-25T00:24:30;31.58;;;21.50;;
70997;SDS011;58663;52.040;4.634;2022-08-25T00:26:56;25.73;;;20.00;;
70997;SDS011;58663;52.040;4.634;2022-08-25T00:29:23;29.42;;;20.33;;
70997;SDS011;58663;52.040;4.634;2022-08-25T00:31:50;27.63;;;21.30;;
70997;SDS011;58663;52.040;4.634;2022-08-25T00:34:18;31.08;;;22.08;;
70997;SDS011;58663;52.040;4.634;2022-08-25T00:36:47;31.33;;;21.95;;
70997;SDS011;58663;52.040;4.634;2022-08-25T00:39:15;27.83;;;20.88;;
70997;SDS011;58663;52.040;4.634;2022-08-25T00:41:42;27.23;;;20.30;;
70997;SDS011;58663;52.040;4.634;2022-08-25T00:44:08;29.95;;;22.10;;
70997;SDS011;58663;52.040;4.634;2022-08-25T00:46:38;31.10;;;22.45;;
70997;SDS011;58663;52.040;4.634;2022-08-25T00:49:08;28.73;;;20.50;;
70997;SDS011;58663;52.040;4.634;2022-08-25T00:51:42;36.13;;;22.75;;
70997;SDS011;58663;52.040;4.634;2022-08-25T00:54:12;28.27;;;22.48;;
70997;SDS011;58663;52.040;4.634;2022-08-25T00:56:41;27.75;;;21.52;;
70997;SDS011;58663;52.040;4.634;2022-08-25T00:59:07;26.63;;;21.13;;
70997;SDS011;58663;52.040;4.634;2022-08-25T01:01:33;30.42;;;22.08;;
70997;SDS011;58663;52.040;4.634;2022-08-25T01:03:58;26.30;;;20.90;;
70997;SDS011;58663;52.040;4.634;2022-08-25T01:06:24;29.40;;;20.85;;
70997;SDS011;58663;52.040;4.634;2022-08-25T01:08:50;27.38;;;21.83;;
70997;SDS011;58663;52.040;4.634;2022-08-25T01:11:16;24.88;;;20.30;;
70997;SDS011;58663;52.040;4.634;2022-08-25T01:13:43;30.98;;;22.60;;
70997;SDS011;58663;52.040;4.634;2022-08-25T01:16:10;28.92;;;21.70;;
70997;SDS011;58663;52.040;4.634;2022-08-25T01:18:45;29.20;;;21.63;;
70997;SDS011;58663;52.040;4.634;2022-08-25T01:21:16;27.77;;;22.17;;
70997;SDS011;58663;52.040;4.634;2022-08-25T01:23:44;33.97;;;22.67;;
70997;SDS011;58663;52.040;4.634;2022-08-25T01:26:14;30.70;;;22.60;;
70997;SDS011;58663;52.040;4.634;2022-08-25T01:28:48;33.17;;;23.00;;
70997;SDS011;58663;52.040;4.634;2022-08-25T01:31:33;33.63;;;24.92;;
70997;SDS011;58663;52.040;4.634;2022-08-25T01:34:00;34.28;;;25.15;;
70997;SDS011;58663;52.040;4.634;2022-08-25T01:36:27;30.77;;;23.70;;
70997;SDS011;58663;52.040;4.634;2022-08-25T01:38:54;33.00;;;24.15;;
70997;SDS011;58663;52.040;4.634;2022-08-25T01:44:10;35.25;;;23.85;;
70997;SDS011;58663;52.040;4.634;2022-08-25T01:46:36;30.75;;;24.42;;
70997;SDS011;58663;52.040;4.634;2022-08-25T01:49:02;39.55;;;26.33;;
70997;SDS011;58663;52.040;4.634;2022-08-25T01:51:29;31.80;;;24.08;;
70997;SDS011;58663;52.040;4.634;2022-08-25T01:53:59;31.73;;;23.73;;
70997;SDS011;58663;52.040;4.634;2022-08-25T01:56:25;34.85;;;24.30;;
70997;SDS011;58663;52.040;4.634;2022-08-25T01:58:50;32.75;;;24.67;;
70997;SDS011;58663;52.040;4.634;2022-08-25T02:01:21;29.02;;;21.55;;
70997;SDS011;58663;52.040;4.634;2022-08-25T02:03:48;33.92;;;25.17;;
70997;SDS011;58663;52.040;4.634;2022-08-25T02:06:17;27.15;;;22.63;;
70997;SDS011;58663;52.040;4.634;2022-08-25T02:08:44;31.00;;;23.70;;
70997;SDS011;58663;52.040;4.634;2022-08-25T02:11:12;33.17;;;23.85;;
70997;SDS011;58663;52.040;4.634;2022-08-25T02:13:39;31.95;;;24.15;;
70997;SDS011;58663;52.040;4.634;2022-08-25T02:16:05;30.10;;;22.42;;
70997;SDS011;58663;52.040;4.634;2022-08-25T02:18:32;28.65;;;22.77;;
70997;SDS011;58663;52.040;4.634;2022-08-25T02:20:58;27.65;;;22.98;;
70997;SDS011;58663;52.040;4.634;2022-08-25T02:23:23;25.85;;;21.15;;
70997;SDS011;58663;52.040;4.634;2022-08-25T02:25:49;33.28;;;23.77;;
70997;SDS011;58663;52.040;4.634;2022-08-25T02:28:15;25.77;;;21.08;;
70997;SDS011;58663;52.040;4.634;2022-08-25T02:30:41;27.08;;;21.98;;
70997;SDS011;58663;52.040;4.634;2022-08-25T02:33:08;25.30;;;20.25;;
70997;SDS011;58663;52.040;4.634;2022-08-25T02:35:34;24.90;;;19.40;;
70997;SDS011;58663;52.040;4.634;2022-08-25T02:38:00;24.65;;;19.13;;
70997;SDS011;58663;52.040;4.634;2022-08-25T02:40:26;26.77;;;21.38;;
70997;SDS011;58663;52.040;4.634;2022-08-25T02:42:51;26.50;;;19.25;;
70997;SDS011;58663;52.040;4.634;2022-08-25T02:45:17;28.75;;;20.08;;
70997;SDS011;58663;52.040;4.634;2022-08-25T02:47:44;26.98;;;19.70;;
70997;SDS011;58663;52.040;4.634;2022-08-25T02:50:10;25.63;;;20.20;;
70997;SDS011;58663;52.040;4.634;2022-08-25T02:52:36;28.33;;;19.73;;
70997;SDS011;58663;52.040;4.634;2022-08-25T02:55:03;25.05;;;19.30;;
70997;SDS011;58663;52.040;4.634;2022-08-25T02:57:31;20.90;;;18.35;;
70997;SDS011;58663;52.040;4.634;2022-08-25T02:59:56;22.08;;;18.20;;
70997;SDS011;58663;52.040;4.634;2022-08-25T03:02:23;21.92;;;17.65;;
70997;SDS011;58663;52.040;4.634;2022-08-25T03:04:49;26.75;;;18.75;;
70997;SDS011;58663;52.040;4.634;2022-08-25T03:07:16;21.88;;;17.05;;
70997;SDS011;58663;52.040;4.634;2022-08-25T03:09:43;22.52;;;17.83;;
70997;SDS011;58663;52.040;4.634;2022-08-25T03:12:09;19.55;;;16.65;;
70997;SDS011;58663;52.040;4.634;2022-08-25T03:14:36;21.67;;;16.80;;
70997;SDS011;58663;52.040;4.634;2022-08-25T03:17:01;21.13;;;16.33;;
70997;SDS011;58663;52.040;4.634;2022-08-25T03:19:27;23.17;;;17.00;;
70997;SDS011;58663;52.040;4.634;2022-08-25T03:21:53;23.10;;;16.65;;
70997;SDS011;58663;52.040;4.634;2022-08-25T03:24:20;19.98;;;16.73;;
70997;SDS011;58663;52.040;4.634;2022-08-25T03:26:46;21.42;;;16.60;;
70997;SDS011;58663;52.040;4.634;2022-08-25T03:29:17;19.70;;;15.00;;
70997;SDS011;58663;52.040;4.634;2022-08-25T03:31:47;23.23;;;16.23;;
70997;SDS011;58663;52.040;4.634;2022-08-25T03:34:14;19.30;;;15.02;;
70997;SDS011;58663;52.040;4.634;2022-08-25T03:36:43;18.15;;;13.80;;
70997;SDS011;58663;52.040;4.634;2022-08-25T03:39:10;19.58;;;15.85;;
70997;SDS011;58663;52.040;4.634;2022-08-25T03:41:36;15.98;;;14.25;;
70997;SDS011;58663;52.040;4.634;2022-08-25T03:44:02;22.30;;;15.35;;
70997;SDS011;58663;52.040;4.634;2022-08-25T03:46:30;18.58;;;14.32;;
70997;SDS011;58663;52.040;4.634;2022-08-25T03:48:58;16.80;;;15.02;;
70997;SDS011;58663;52.040;4.634;2022-08-25T03:51:29;17.20;;;14.07;;
70997;SDS011;58663;52.040;4.634;2022-08-25T03:53:59;17.45;;;13.57;;
70997;SDS011;58663;52.040;4.634;2022-08-25T03:56:25;18.52;;;14.38;;
70997;SDS011;58663;52.040;4.634;2022-08-25T03:58:51;15.10;;;13.48;;
70997;SDS011;58663;52.040;4.634;2022-08-25T04:01:17;18.92;;;14.10;;
70997;SDS011;58663;52.040;4.634;2022-08-25T04:03:43;18.33;;;12.85;;
70997;SDS011;58663;52.040;4.634;2022-08-25T04:06:08;15.25;;;12.32;;
70997;SDS011;58663;52.040;4.634;2022-08-25T04:08:34;14.85;;;12.35;;
70997;SDS011;58663;52.040;4.634;2022-08-25T04:11:07;16.25;;;12.60;;
70997;SDS011;58663;52.040;4.634;2022-08-25T04:13:38;13.85;;;11.55;;
70997;SDS011;58663;52.040;4.634;2022-08-25T04:16:15;11.95;;;10.70;;
70997;SDS011;58663;52.040;4.634;2022-08-25T04:18:42;17.88;;;11.55;;
70997;SDS011;58663;52.040;4.634;2022-08-25T04:21:09;15.25;;;11.75;;
70997;SDS011;58663;52.040;4.634;2022-08-25T04:23:37;15.35;;;11.40;;
70997;SDS011;58663;52.040;4.634;2022-08-25T04:26:11;14.23;;;11.68;;
70997;SDS011;58663;52.040;4.634;2022-08-25T04:28:38;13.15;;;10.48;;
70997;SDS011;58663;52.040;4.634;2022-08-25T04:31:07;12.43;;;11.13;;
70997;SDS011;58663;52.040;4.634;2022-08-25T04:33:34;11.48;;;10.27;;
70997;SDS011;58663;52.040;4.634;2022-08-25T04:36:01;13.70;;;10.73;;
70997;SDS011;58663;52.040;4.634;2022-08-25T04:38:27;11.80;;;9.88;;
70997;SDS011;58663;52.040;4.634;2022-08-25T04:40:56;17.95;;;10.23;;
70997;SDS011;58663;52.040;4.634;2022-08-25T04:43:22;12.93;;;9.95;;
70997;SDS011;58663;52.040;4.634;2022-08-25T04:45:47;10.02;;;9.02;;
70997;SDS011;58663;52.040;4.634;2022-08-25T04:48:13;12.00;;;9.38;;
70997;SDS011;58663;52.040;4.634;2022-08-25T04:50:39;9.98;;;8.82;;
70997;SDS011;58663;52.040;4.634;2022-08-25T04:53:05;10.82;;;8.57;;
70997;SDS011;58663;52.040;4.634;2022-08-25T04:55:30;12.18;;;9.77;;
70997;SDS011;58663;52.040;4.634;2022-08-25T04:57:56;12.63;;;8.88;;
70997;SDS011;58663;52.040;4.634;2022-08-25T05:00:21;11.73;;;8.68;;
70997;SDS011;58663;52.040;4.634;2022-08-25T05:02:47;11.70;;;8.38;;
70997;SDS011;58663;52.040;4.634;2022-08-25T05:05:13;10.95;;;9.35;;
70997;SDS011;58663;52.040;4.634;2022-08-25T05:07:39;13.15;;;10.15;;
70997;SDS011;58663;52.040;4.634;2022-08-25T05:10:04;10.90;;;8.82;;
70997;SDS011;58663;52.040;4.634;2022-08-25T05:12:30;13.02;;;9.07;;
70997;SDS011;58663;52.040;4.634;2022-08-25T05:14:56;11.60;;;9.32;;
70997;SDS011;58663;52.040;4.634;2022-08-25T05:17:42;14.88;;;9.95;;
70997;SDS011;58663;52.040;4.634;2022-08-25T05:20:07;11.82;;;10.43;;
70997;SDS011;58663;52.040;4.634;2022-08-25T05:22:33;11.85;;;9.70;;
70997;SDS011;58663;52.040;4.634;2022-08-25T05:24:58;12.63;;;10.23;;
70997;SDS011;58663;52.040;4.634;2022-08-25T05:27:24;11.38;;;9.15;;
70997;SDS011;58663;52.040;4.634;2022-08-25T05:29:49;14.15;;;9.57;;
70997;SDS011;58663;52.040;4.634;2022-08-25T05:32:15;10.65;;;9.27;;
70997;SDS011;58663;52.040;4.634;2022-08-25T05:34:40;11.27;;;8.48;;
70997;SDS011;58663;52.040;4.634;2022-08-25T05:37:06;11.60;;;9.32;;
70997;SDS011;58663;52.040;4.634;2022-08-25T05:39:31;13.48;;;9.55;;
70997;SDS011;58663;52.040;4.634;2022-08-25T05:41:57;12.40;;;9.52;;
70997;SDS011;58663;52.040;4.634;2022-08-25T05:44:23;10.88;;;8.70;;
70997;SDS011;58663;52.040;4.634;2022-08-25T05:46:48;16.05;;;10.27;;
70997;SDS011;58663;52.040;4.634;2022-08-25T05:49:15;9.90;;;8.52;;
70997;SDS011;58663;52.040;4.634;2022-08-25T05:51:40;13.40;;;9.32;;
70997;SDS011;58663;52.040;4.634;2022-08-25T05:54:06;12.10;;;8.90;;
70997;SDS011;58663;52.040;4.634;2022-08-25T05:56:31;11.82;;;9.20;;
70997;SDS011;58663;52.040;4.634;2022-08-25T05:58:57;12.60;;;8.75;;
70997;SDS011;58663;52.040;4.634;2022-08-25T06:01:24;11.07;;;8.77;;
70997;SDS011;58663;52.040;4.634;2022-08-25T06:04:09;11.48;;;8.20;;
70997;SDS011;58663;52.040;4.634;2022-08-25T06:06:35;12.77;;;8.68;;
70997;SDS011;58663;52.040;4.634;2022-08-25T06:09:00;13.93;;;8.77;;
70997;SDS011;58663;52.040;4.634;2022-08-25T06:11:27;9.80;;;8.50;;
70997;SDS011;58663;52.040;4.634;2022-08-25T06:13:52;15.65;;;9.02;;
70997;SDS011;58663;52.040;4.634;2022-08-25T06:16:18;12.35;;;9.05;;
70997;SDS011;58663;52.040;4.634;2022-08-25T06:18:43;11.00;;;9.45;;
70997;SDS011;58663;52.040;4.634;2022-08-25T06:21:10;16.92;;;9.35;;
70997;SDS011;58663;52.040;4.634;2022-08-25T06:23:37;11.85;;;8.60;;
70997;SDS011;58663;52.040;4.634;2022-08-25T06:26:03;11.55;;;8.68;;
70997;SDS011;58663;52.040;4.634;2022-08-25T06:28:29;12.95;;;9.90;;
70997;SDS011;58663;52.040;4.634;2022-08-25T06:30:58;13.55;;;9.15;;
70997;SDS011;58663;52.040;4.634;2022-08-25T06:33:24;11.15;;;9.18;;
70997;SDS011;58663;52.040;4.634;2022-08-25T06:35:52;9.07;;;8.13;;
70997;SDS011;58663;52.040;4.634;2022-08-25T06:38:19;12.52;;;9.23;;
70997;SDS011;58663;52.040;4.634;2022-08-25T06:40:46;14.02;;;8.95;;
70997;SDS011;58663;52.040;4.634;2022-08-25T06:43:12;14.35;;;9.40;;
70997;SDS011;58663;52.040;4.634;2022-08-25T06:45:37;12.93;;;8.57;;
70997;SDS011;58663;52.040;4.634;2022-08-25T06:48:03;13.65;;;9.40;;
70997;SDS011;58663;52.040;4.634;2022-08-25T06:50:28;11.15;;;9.18;;
70997;SDS011;58663;52.040;4.634;2022-08-25T06:52:54;9.60;;;8.55;;
70997;SDS011;58663;52.040;4.634;2022-08-25T06:55:19;12.45;;;8.50;;
70997;SDS011;58663;52.040;4.634;2022-08-25T06:57:46;9.57;;;8.00;;
70997;SDS011;58663;52.040;4.634;2022-08-25T07:00:12;11.00;;;8.68;;
70997;SDS011;58663;52.040;4.634;2022-08-25T07:02:38;13.25;;;8.25;;
70997;SDS011;58663;52.040;4.634;2022-08-25T07:05:04;11.25;;;8.20;;
70997;SDS011;58663;52.040;4.634;2022-08-25T07:07:30;12.75;;;8.23;;
70997;SDS011;58663;52.040;4.634;2022-08-25T07:09:56;12.18;;;8.93;;
70997;SDS011;58663;52.040;4.634;2022-08-25T07:12:21;10.73;;;7.82;;
70997;SDS011;58663;52.040;4.634;2022-08-25T07:14:48;8.85;;;7.47;;
70997;SDS011;58663;52.040;4.634;2022-08-25T07:17:14;10.48;;;7.93;;
70997;SDS011;58663;52.040;4.634;2022-08-25T07:19:41;15.93;;;8.38;;
70997;SDS011;58663;52.040;4.634;2022-08-25T07:22:06;8.63;;;7.63;;
70997;SDS011;58663;52.040;4.634;2022-08-25T07:24:32;12.13;;;7.68;;
70997;SDS011;58663;52.040;4.634;2022-08-25T07:26:57;13.05;;;8.15;;
70997;SDS011;58663;52.040;4.634;2022-08-25T07:29:24;11.07;;;7.63;;
70997;SDS011;58663;52.040;4.634;2022-08-25T07:31:52;10.13;;;7.50;;
70997;SDS011;58663;52.040;4.634;2022-08-25T07:34:18;11.60;;;7.95;;
70997;SDS011;58663;52.040;4.634;2022-08-25T07:37:02;13.00;;;8.50;;
70997;SDS011;58663;52.040;4.634;2022-08-25T07:39:28;11.50;;;7.93;;
70997;SDS011;58663;52.040;4.634;2022-08-25T07:41:55;9.60;;;7.45;;
70997;SDS011;58663;52.040;4.634;2022-08-25T07:44:20;12.05;;;7.30;;
70997;SDS011;58663;52.040;4.634;2022-08-25T07:46:46;9.50;;;7.55;;
70997;SDS011;58663;52.040;4.634;2022-08-25T07:49:12;9.98;;;6.70;;
70997;SDS011;58663;52.040;4.634;2022-08-25T07:51:38;10.77;;;7.07;;
70997;SDS011;58663;52.040;4.634;2022-08-25T07:54:04;9.65;;;7.57;;
70997;SDS011;58663;52.040;4.634;2022-08-25T07:56:29;11.45;;;6.88;;
70997;SDS011;58663;52.040;4.634;2022-08-25T07:58:55;11.05;;;5.95;;
70997;SDS011;58663;52.040;4.634;2022-08-25T08:01:21;11.35;;;7.18;;
70997;SDS011;58663;52.040;4.634;2022-08-25T08:03:48;8.95;;;5.70;;
70997;SDS011;58663;52.040;4.634;2022-08-25T08:06:15;7.30;;;5.97;;
70997;SDS011;58663;52.040;4.634;2022-08-25T08:08:42;14.32;;;6.22;;
70997;SDS011;58663;52.040;4.634;2022-08-25T08:11:21;7.45;;;5.47;;
70997;SDS011;58663;52.040;4.634;2022-08-25T08:13:54;14.40;;;5.93;;
70997;SDS011;58663;52.040;4.634;2022-08-25T08:16:22;7.47;;;5.25;;
70997;SDS011;58663;52.040;4.634;2022-08-25T08:18:51;6.13;;;4.65;;
70997;SDS011;58663;52.040;4.634;2022-08-25T08:21:18;8.73;;;5.68;;
70997;SDS011;58663;52.040;4.634;2022-08-25T08:23:45;8.20;;;5.22;;
70997;SDS011;58663;52.040;4.634;2022-08-25T08:26:12;10.00;;;5.25;;
70997;SDS011;58663;52.040;4.634;2022-08-25T08:28:38;8.18;;;5.28;;
70997;SDS011;58663;52.040;4.634;2022-08-25T08:31:04;9.55;;;4.75;;
70997;SDS011;58663;52.040;4.634;2022-08-25T08:33:30;10.13;;;4.32;;
70997;SDS011;58663;52.040;4.634;2022-08-25T08:35:56;9.63;;;4.90;;
70997;SDS011;58663;52.040;4.634;2022-08-25T08:38:26;5.82;;;4.57;;
70997;SDS011;58663;52.040;4.634;2022-08-25T08:43:55;9.68;;;5.18;;
70997;SDS011;58663;52.040;4.634;2022-08-25T08:46:31;9.75;;;4.72;;
70997;SDS011;58663;52.040;4.634;2022-08-25T08:49:05;7.35;;;3.97;;
70997;SDS011;58663;52.040;4.634;2022-08-25T08:51:43;8.88;;;4.15;;
70997;SDS011;58663;52.040;4.634;2022-08-25T08:54:15;5.80;;;3.53;;
70997;SDS011;58663;52.040;4.634;2022-08-25T08:56:46;4.32;;;3.90;;
70997;SDS011;58663;52.040;4.634;2022-08-25T08:59:15;5.15;;;3.30;;
70997;SDS011;58663;52.040;4.634;2022-08-25T09:01:48;5.65;;;3.10;;
70997;SDS011;58663;52.040;4.634;2022-08-25T09:04:21;8.48;;;3.70;;
70997;SDS011;58663;52.040;4.634;2022-08-25T09:06:50;7.07;;;3.67;;
70997;SDS011;58663;52.040;4.634;2022-08-25T09:09:38;5.18;;;3.15;;
70997;SDS011;58663;52.040;4.634;2022-08-25T09:12:17;4.13;;;3.13;;
70997;SDS011;58663;52.040;4.634;2022-08-25T09:14:55;4.18;;;2.65;;
70997;SDS011;58663;52.040;4.634;2022-08-25T09:20:24;4.00;;;2.90;;
70997;SDS011;58663;52.040;4.634;2022-08-25T09:23:06;5.38;;;2.78;;
70997;SDS011;58663;52.040;4.634;2022-08-25T09:29:21;5.00;;;2.90;;
70997;SDS011;58663;52.040;4.634;2022-08-25T09:31:52;5.22;;;2.55;;
70997;SDS011;58663;52.040;4.634;2022-08-25T09:34:21;5.38;;;2.70;;
70997;SDS011;58663;52.040;4.634;2022-08-25T09:36:48;5.45;;;2.90;;
70997;SDS011;58663;52.040;4.634;2022-08-25T09:39:17;4.57;;;2.83;;
70997;SDS011;58663;52.040;4.634;2022-08-25T09:41:50;4.18;;;2.65;;
70997;SDS011;58663;52.040;4.634;2022-08-25T09:44:22;5.93;;;2.83;;
70997;SDS011;58663;52.040;4.634;2022-08-25T09:49:43;3.95;;;2.65;;
70997;SDS011;58663;52.040;4.634;2022-08-25T09:54:48;7.35;;;2.60;;
70997;SDS011;58663;52.040;4.634;2022-08-25T09:57:27;5.88;;;2.92;;
70997;SDS011;58663;52.040;4.634;2022-08-25T10:03:20;5.93;;;3.13;;
70997;SDS011;58663;52.040;4.634;2022-08-25T10:05:58;6.93;;;3.63;;
70997;SDS011;58663;52.040;4.634;2022-08-25T10:09:26;4.28;;;2.60;;
70997;SDS011;58663;52.040;4.634;2022-08-25T10:11:37;2.92;;;2.38;;
70997;SDS011;58663;52.040;4.634;2022-08-25T10:14:10;4.85;;;2.75;;
70997;SDS011;58663;52.040;4.634;2022-08-25T10:16:39;3.38;;;2.70;;
70997;SDS011;58663;52.040;4.634;2022-08-25T10:21:39;7.57;;;2.67;;
70997;SDS011;58663;52.040;4.634;2022-08-25T10:24:07;7.80;;;2.78;;
70997;SDS011;58663;52.040;4.634;2022-08-25T10:29:15;6.13;;;2.70;;
70997;SDS011;58663;52.040;4.634;2022-08-25T10:32:03;11.10;;;2.80;;
70997;SDS011;58663;52.040;4.634;2022-08-25T10:45:28;4.07;;;3.05;;
70997;SDS011;58663;52.040;4.634;2022-08-25T10:50:44;7.55;;;3.10;;
70997;SDS011;58663;52.040;4.634;2022-08-25T10:53:28;4.35;;;2.70;;
70997;SDS011;58663;52.040;4.634;2022-08-25T10:56:00;4.90;;;2.70;;
70997;SDS011;58663;52.040;4.634;2022-08-25T10:59:06;3.55;;;2.50;;
70997;SDS011;58663;52.040;4.634;2022-08-25T11:04:31;3.67;;;2.60;;
70997;SDS011;58663;52.040;4.634;2022-08-25T11:07:09;3.20;;;2.50;;
70997;SDS011;58663;52.040;4.634;2022-08-25T11:09:42;7.80;;;3.17;;
70997;SDS011;58663;52.040;4.634;2022-08-25T11:12:11;6.43;;;2.95;;
70997;SDS011;58663;52.040;4.634;2022-08-25T11:14:40;8.15;;;2.78;;
70997;SDS011;58663;52.040;4.634;2022-08-25T11:17:14;5.93;;;2.70;;
70997;SDS011;58663;52.040;4.634;2022-08-25T11:19:43;3.45;;;2.40;;
70997;SDS011;58663;52.040;4.634;2022-08-25T11:24:50;3.92;;;2.33;;
70997;SDS011;58663;52.040;4.634;2022-08-25T11:29:48;10.10;;;2.70;;
70997;SDS011;58663;52.040;4.634;2022-08-25T11:32:20;3.10;;;2.60;;
70997;SDS011;58663;52.040;4.634;2022-08-25T11:34:47;6.18;;;2.35;;
70997;SDS011;58663;52.040;4.634;2022-08-25T11:37:34;3.28;;;2.42;;
70997;SDS011;58663;52.040;4.634;2022-08-25T12:04:56;5.18;;;2.63;;
70997;SDS011;58663;52.040;4.634;2022-08-25T12:07:22;4.15;;;2.80;;
70997;SDS011;58663;52.040;4.634;2022-08-25T12:18:08;5.50;;;2.30;;
70997;SDS011;58663;52.040;4.634;2022-08-25T12:23:30;3.95;;;2.53;;
70997;SDS011;58663;52.040;4.634;2022-08-25T12:26:07;3.83;;;2.63;;
70997;SDS011;58663;52.040;4.634;2022-08-25T12:37:31;3.92;;;2.72;;
70997;SDS011;58663;52.040;4.634;2022-08-25T12:39:58;5.82;;;2.92;;
70997;SDS011;58663;52.040;4.634;2022-08-25T12:42:34;8.07;;;2.70;;
70997;SDS011;58663;52.040;4.634;2022-08-25T12:47:45;5.50;;;2.60;;
70997;SDS011;58663;52.040;4.634;2022-08-25T12:52:58;5.03;;;2.80;;
70997;SDS011;58663;52.040;4.634;2022-08-25T12:55:51;4.22;;;2.83;;
70997;SDS011;58663;52.040;4.634;2022-08-25T12:58:22;9.73;;;3.17;;
70997;SDS011;58663;52.040;4.634;2022-08-25T13:11:38;3.05;;;2.60;;
70997;SDS011;58663;52.040;4.634;2022-08-25T13:17:24;3.72;;;3.05;;
70997;SDS011;58663;52.040;4.634;2022-08-25T13:22:51;9.02;;;2.83;;
70997;SDS011;58663;52.040;4.634;2022-08-25T13:25:18;3.40;;;2.83;;
70997;SDS011;58663;52.040;4.634;2022-08-25T13:27:49;3.55;;;3.05;;
70997;SDS011;58663;52.040;4.634;2022-08-25T13:30:24;3.88;;;2.80;;
70997;SDS011;58663;52.040;4.634;2022-08-25T13:32:52;4.32;;;3.30;;
70997;SDS011;58663;52.040;4.634;2022-08-25T13:35:20;3.58;;;2.80;;
70997;SDS011;58663;52.040;4.634;2022-08-25T13:37:45;6.00;;;3.33;;
70997;SDS011;58663;52.040;4.634;2022-08-25T13:40:12;8.82;;;3.25;;
70997;SDS011;58663;52.040;4.634;2022-08-25T13:42:43;7.88;;;3.40;;
70997;SDS011;58663;52.040;4.634;2022-08-25T13:45:32;6.40;;;3.90;;
70997;SDS011;58663;52.040;4.634;2022-08-25T13:48:01;3.75;;;3.35;;
70997;SDS011;58663;52.040;4.634;2022-08-25T13:52:54;5.00;;;3.10;;
70997;SDS011;58663;52.040;4.634;2022-08-25T13:55:23;6.28;;;3.58;;
70997;SDS011;58663;52.040;4.634;2022-08-25T13:57:50;8.23;;;3.17;;
70997;SDS011;58663;52.040;4.634;2022-08-25T14:00:25;7.15;;;3.40;;
70997;SDS011;58663;52.040;4.634;2022-08-25T14:03:28;6.93;;;3.55;;
70997;SDS011;58663;52.040;4.634;2022-08-25T14:06:05;7.30;;;3.38;;
70997;SDS011;58663;52.040;4.634;2022-08-25T14:08:37;7.55;;;3.42;;
70997;SDS011;58663;52.040;4.634;2022-08-25T14:11:08;5.72;;;3.30;;
70997;SDS011;58663;52.040;4.634;2022-08-25T14:13:59;4.63;;;3.25;;
70997;SDS011;58663;52.040;4.634;2022-08-25T14:16:31;8.20;;;3.53;;
70997;SDS011;58663;52.040;4.634;2022-08-25T14:18:58;3.97;;;3.25;;
70997;SDS011;58663;52.040;4.634;2022-08-25T14:21:27;7.47;;;3.95;;
70997;SDS011;58663;52.040;4.634;2022-08-25T14:23:54;7.68;;;4.20;;
70997;SDS011;58663;52.040;4.634;2022-08-25T14:26:21;10.88;;;3.60;;
70997;SDS011;58663;52.040;4.634;2022-08-25T14:28:47;5.57;;;3.30;;
70997;SDS011;58663;52.040;4.634;2022-08-25T14:31:35;5.65;;;3.67;;
70997;SDS011;58663;52.040;4.634;2022-08-25T14:34:02;11.63;;;3.50;;
70997;SDS011;58663;52.040;4.634;2022-08-25T14:36:29;4.15;;;3.58;;
70997;SDS011;58663;52.040;4.634;2022-08-25T14:38:55;4.82;;;3.80;;
70997;SDS011;58663;52.040;4.634;2022-08-25T14:41:22;3.92;;;3.53;;
70997;SDS011;58663;52.040;4.634;2022-08-25T14:43:48;9.20;;;3.72;;
70997;SDS011;58663;52.040;4.634;2022-08-25T14:46:21;8.30;;;3.80;;
70997;SDS011;58663;52.040;4.634;2022-08-25T14:48:48;6.25;;;3.33;;
70997;SDS011;58663;52.040;4.634;2022-08-25T14:51:18;8.07;;;4.00;;
70997;SDS011;58663;52.040;4.634;2022-08-25T14:53:43;10.00;;;4.25;;
70997;SDS011;58663;52.040;4.634;2022-08-25T14:56:09;8.10;;;3.70;;
70997;SDS011;58663;52.040;4.634;2022-08-25T14:58:34;5.43;;;3.35;;
70997;SDS011;58663;52.040;4.634;2022-08-25T15:01:00;6.35;;;4.05;;
70997;SDS011;58663;52.040;4.634;2022-08-25T15:03:29;4.35;;;3.95;;
70997;SDS011;58663;52.040;4.634;2022-08-25T15:05:57;7.68;;;4.80;;
70997;SDS011;58663;52.040;4.634;2022-08-25T15:08:24;10.93;;;6.38;;
70997;SDS011;58663;52.040;4.634;2022-08-25T15:11:08;9.07;;;6.82;;
70997;SDS011;58663;52.040;4.634;2022-08-25T15:13:33;8.98;;;7.97;;
70997;SDS011;58663;52.040;4.634;2022-08-25T15:15:59;8.15;;;6.85;;
70997;SDS011;58663;52.040;4.634;2022-08-25T15:18:25;9.68;;;8.45;;
70997;SDS011;58663;52.040;4.634;2022-08-25T15:20:50;10.75;;;8.40;;
70997;SDS011;58663;52.040;4.634;2022-08-25T15:23:16;10.20;;;9.05;;
70997;SDS011;58663;52.040;4.634;2022-08-25T15:25:42;12.77;;;11.00;;
70997;SDS011;58663;52.040;4.634;2022-08-25T15:28:09;18.70;;;13.18;;
70997;SDS011;58663;52.040;4.634;2022-08-25T15:30:34;15.60;;;13.00;;
70997;SDS011;58663;52.040;4.634;2022-08-25T15:33:00;17.75;;;14.25;;
70997;SDS011;58663;52.040;4.634;2022-08-25T15:35:26;17.65;;;14.80;;
70997;SDS011;58663;52.040;4.634;2022-08-25T15:37:52;18.50;;;16.02;;
70997;SDS011;58663;52.040;4.634;2022-08-25T15:40:17;21.27;;;19.05;;
70997;SDS011;58663;52.040;4.634;2022-08-25T15:42:43;22.60;;;20.05;;
70997;SDS011;58663;52.040;4.634;2022-08-25T15:45:09;21.60;;;18.83;;
70997;SDS011;58663;52.040;4.634;2022-08-25T15:47:35;24.75;;;20.10;;
70997;SDS011;58663;52.040;4.634;2022-08-25T15:50:06;24.15;;;21.48;;
70997;SDS011;58663;52.040;4.634;2022-08-25T15:52:33;28.13;;;21.85;;
70997;SDS011;58663;52.040;4.634;2022-08-25T15:54:59;24.63;;;20.27;;
70997;SDS011;58663;52.040;4.634;2022-08-25T15:57:25;23.75;;;20.85;;
70997;SDS011;58663;52.040;4.634;2022-08-25T15:59:51;25.55;;;20.77;;
70997;SDS011;58663;52.040;4.634;2022-08-25T16:02:16;29.00;;;22.45;;
70997;SDS011;58663;52.040;4.634;2022-08-25T16:04:42;25.20;;;21.58;;
70997;SDS011;58663;52.040;4.634;2022-08-25T16:07:08;24.77;;;20.85;;
70997;SDS011;58663;52.040;4.634;2022-08-25T16:09:34;27.70;;;20.55;;
70997;SDS011;58663;52.040;4.634;2022-08-25T16:12:00;23.02;;;19.88;;
70997;SDS011;58663;52.040;4.634;2022-08-25T16:14:26;29.90;;;20.27;;
70997;SDS011;58663;52.040;4.634;2022-08-25T16:16:51;30.75;;;21.98;;
70997;SDS011;58663;52.040;4.634;2022-08-25T16:19:17;26.63;;;20.13;;
70997;SDS011;58663;52.040;4.634;2022-08-25T16:21:42;27.95;;;22.42;;
70997;SDS011;58663;52.040;4.634;2022-08-25T16:24:09;24.30;;;19.65;;
70997;SDS011;58663;52.040;4.634;2022-08-25T16:26:35;29.40;;;22.85;;
70997;SDS011;58663;52.040;4.634;2022-08-25T16:29:05;29.42;;;21.90;;
70997;SDS011;58663;52.040;4.634;2022-08-25T16:31:31;28.85;;;21.90;;
70997;SDS011;58663;52.040;4.634;2022-08-25T16:33:56;30.55;;;23.25;;
70997;SDS011;58663;52.040;4.634;2022-08-25T16:36:23;27.40;;;21.90;;
70997;SDS011;58663;52.040;4.634;2022-08-25T16:38:49;32.92;;;22.65;;